sensor_id;sensor_type;location;lat;lon;timestamp;P1;durP1;ratioP1;P2;durP2;ratioP2
27113;SDS011;14648;49.730;8.614;2023-05-16T00:00:33;24.90;;;15.27;;
27113;SDS011;14648;49.730;8.614;2023-05-16T00:02:59;22.17;;;12.87;;
27113;SDS011;14648;49.730;8.614;2023-05-16T00:05:27;21.93;;;13.83;;
27113;SDS011;14648;49.730;8.614;2023-05-16T00:07:53;28.80;;;13.83;;
27113;SDS011;14648;49.730;8.614;2023-05-16T00:10:18;21.10;;;12.63;;
27113;SDS011;14648;49.730;8.614;2023-05-16T00:12:44;25.37;;;13.67;;
27113;SDS011;14648;49.730;8.614;2023-05-16T00:15:15;20.63;;;13.17;;
27113;SDS011;14648;49.730;8.614;2023-05-16T00:17:42;23.27;;;14.67;;
27113;SDS011;14648;49.730;8.614;2023-05-16T00:20:12;19.70;;;12.80;;
27113;SDS011;14648;49.730;8.614;2023-05-16T00:22:38;26.40;;;14.33;;
27113;SDS011;14648;49.730;8.614;2023-05-16T00:25:05;20.40;;;13.13;;
27113;SDS011;14648;49.730;8.614;2023-05-16T00:27:33;27.43;;;14.87;;
27113;SDS011;14648;49.730;8.614;2023-05-16T00:30:00;26.23;;;15.40;;
27113;SDS011;14648;49.730;8.614;2023-05-16T00:32:27;22.10;;;14.17;;
27113;SDS011;14648;49.730;8.614;2023-05-16T00:34:52;32.80;;;16.47;;
27113;SDS011;14648;49.730;8.614;2023-05-16T00:37:18;24.53;;;14.83;;
27113;SDS011;14648;49.730;8.614;2023-05-16T00:39:44;21.23;;;13.97;;
27113;SDS011;14648;49.730;8.614;2023-05-16T00:42:09;28.23;;;15.20;;
27113;SDS011;14648;49.730;8.614;2023-05-16T00:44:35;29.73;;;16.40;;
27113;SDS011;14648;49.730;8.614;2023-05-16T00:47:01;28.80;;;14.77;;
27113;SDS011;14648;49.730;8.614;2023-05-16T00:49:28;25.30;;;15.00;;
27113;SDS011;14648;49.730;8.614;2023-05-16T00:51:54;27.47;;;15.33;;
27113;SDS011;14648;49.730;8.614;2023-05-16T00:54:21;26.73;;;14.63;;
27113;SDS011;14648;49.730;8.614;2023-05-16T00:56:50;30.03;;;17.63;;
27113;SDS011;14648;49.730;8.614;2023-05-16T00:59:16;32.00;;;16.97;;
27113;SDS011;14648;49.730;8.614;2023-05-16T01:01:43;34.00;;;17.80;;
27113;SDS011;14648;49.730;8.614;2023-05-16T01:04:11;25.10;;;15.70;;
27113;SDS011;14648;49.730;8.614;2023-05-16T01:06:36;35.47;;;19.27;;
27113;SDS011;14648;49.730;8.614;2023-05-16T01:09:02;27.43;;;15.97;;
27113;SDS011;14648;49.730;8.614;2023-05-16T01:11:42;28.07;;;17.60;;
27113;SDS011;14648;49.730;8.614;2023-05-16T01:14:45;30.57;;;16.77;;
27113;SDS011;14648;49.730;8.614;2023-05-16T01:17:44;33.00;;;19.40;;
27113;SDS011;14648;49.730;8.614;2023-05-16T01:20:25;30.90;;;16.63;;
27113;SDS011;14648;49.730;8.614;2023-05-16T01:26:28;30.80;;;17.53;;
27113;SDS011;14648;49.730;8.614;2023-05-16T01:28:54;31.67;;;17.93;;
27113;SDS011;14648;49.730;8.614;2023-05-16T01:31:20;40.10;;;20.20;;
27113;SDS011;14648;49.730;8.614;2023-05-16T01:33:47;32.90;;;19.17;;
27113;SDS011;14648;49.730;8.614;2023-05-16T01:36:29;31.97;;;18.43;;
27113;SDS011;14648;49.730;8.614;2023-05-16T01:39:35;30.40;;;17.63;;
27113;SDS011;14648;49.730;8.614;2023-05-16T01:42:12;41.00;;;19.97;;
27113;SDS011;14648;49.730;8.614;2023-05-16T01:44:42;37.30;;;19.73;;
27113;SDS011;14648;49.730;8.614;2023-05-16T01:47:15;34.00;;;19.17;;
27113;SDS011;14648;49.730;8.614;2023-05-16T01:52:39;41.37;;;18.67;;
27113;SDS011;14648;49.730;8.614;2023-05-16T01:55:15;44.50;;;22.07;;
27113;SDS011;14648;49.730;8.614;2023-05-16T01:57:49;32.80;;;18.90;;
27113;SDS011;14648;49.730;8.614;2023-05-16T02:00:16;37.10;;;19.67;;
27113;SDS011;14648;49.730;8.614;2023-05-16T02:02:42;30.83;;;17.43;;
27113;SDS011;14648;49.730;8.614;2023-05-16T02:05:08;30.77;;;17.60;;
27113;SDS011;14648;49.730;8.614;2023-05-16T02:07:35;35.37;;;19.30;;
27113;SDS011;14648;49.730;8.614;2023-05-16T02:10:01;35.17;;;18.77;;
27113;SDS011;14648;49.730;8.614;2023-05-16T02:12:28;32.40;;;20.10;;
27113;SDS011;14648;49.730;8.614;2023-05-16T02:14:54;36.40;;;20.47;;
27113;SDS011;14648;49.730;8.614;2023-05-16T02:17:20;30.10;;;19.00;;
27113;SDS011;14648;49.730;8.614;2023-05-16T02:19:45;37.67;;;20.13;;
27113;SDS011;14648;49.730;8.614;2023-05-16T02:22:11;34.80;;;18.13;;
27113;SDS011;14648;49.730;8.614;2023-05-16T02:24:37;36.87;;;18.87;;
27113;SDS011;14648;49.730;8.614;2023-05-16T02:27:02;31.87;;;18.87;;
27113;SDS011;14648;49.730;8.614;2023-05-16T02:29:28;39.00;;;21.70;;
27113;SDS011;14648;49.730;8.614;2023-05-16T02:31:54;31.50;;;18.50;;
27113;SDS011;14648;49.730;8.614;2023-05-16T02:34:21;35.30;;;19.53;;
27113;SDS011;14648;49.730;8.614;2023-05-16T02:36:47;29.23;;;17.87;;
27113;SDS011;14648;49.730;8.614;2023-05-16T02:39:12;35.47;;;18.23;;
27113;SDS011;14648;49.730;8.614;2023-05-16T02:41:38;37.67;;;19.10;;
27113;SDS011;14648;49.730;8.614;2023-05-16T02:44:04;44.50;;;19.40;;
27113;SDS011;14648;49.730;8.614;2023-05-16T02:46:31;30.87;;;18.10;;
27113;SDS011;14648;49.730;8.614;2023-05-16T02:48:58;28.10;;;16.83;;
27113;SDS011;14648;49.730;8.614;2023-05-16T02:51:25;41.70;;;18.43;;
27113;SDS011;14648;49.730;8.614;2023-05-16T02:53:52;30.37;;;17.63;;
27113;SDS011;14648;49.730;8.614;2023-05-16T02:56:18;30.30;;;18.33;;
27113;SDS011;14648;49.730;8.614;2023-05-16T02:58:46;28.90;;;18.00;;
27113;SDS011;14648;49.730;8.614;2023-05-16T03:01:13;36.37;;;19.20;;
27113;SDS011;14648;49.730;8.614;2023-05-16T03:03:40;30.33;;;18.53;;
27113;SDS011;14648;49.730;8.614;2023-05-16T03:06:06;27.30;;;16.53;;
27113;SDS011;14648;49.730;8.614;2023-05-16T03:08:32;29.57;;;18.57;;
27113;SDS011;14648;49.730;8.614;2023-05-16T03:10:59;32.73;;;17.67;;
27113;SDS011;14648;49.730;8.614;2023-05-16T03:13:25;38.33;;;18.87;;
27113;SDS011;14648;49.730;8.614;2023-05-16T03:15:51;32.00;;;19.17;;
27113;SDS011;14648;49.730;8.614;2023-05-16T03:18:17;31.77;;;18.47;;
27113;SDS011;14648;49.730;8.614;2023-05-16T03:20:45;31.07;;;17.90;;
27113;SDS011;14648;49.730;8.614;2023-05-16T03:23:11;31.47;;;18.33;;
27113;SDS011;14648;49.730;8.614;2023-05-16T03:25:37;38.67;;;21.23;;
27113;SDS011;14648;49.730;8.614;2023-05-16T03:28:04;34.27;;;18.83;;
27113;SDS011;14648;49.730;8.614;2023-05-16T03:30:34;29.67;;;17.33;;
27113;SDS011;14648;49.730;8.614;2023-05-16T03:32:59;29.60;;;17.90;;
27113;SDS011;14648;49.730;8.614;2023-05-16T03:35:26;30.10;;;17.70;;
27113;SDS011;14648;49.730;8.614;2023-05-16T03:37:52;31.23;;;17.20;;
27113;SDS011;14648;49.730;8.614;2023-05-16T03:40:18;31.50;;;19.33;;
27113;SDS011;14648;49.730;8.614;2023-05-16T03:42:44;29.70;;;18.67;;
27113;SDS011;14648;49.730;8.614;2023-05-16T03:45:10;26.10;;;17.13;;
27113;SDS011;14648;49.730;8.614;2023-05-16T03:47:36;28.90;;;17.00;;
27113;SDS011;14648;49.730;8.614;2023-05-16T03:50:02;31.27;;;19.13;;
27113;SDS011;14648;49.730;8.614;2023-05-16T03:52:29;27.83;;;18.10;;
27113;SDS011;14648;49.730;8.614;2023-05-16T03:54:55;34.03;;;18.73;;
27113;SDS011;14648;49.730;8.614;2023-05-16T03:57:22;35.70;;;17.93;;
27113;SDS011;14648;49.730;8.614;2023-05-16T03:59:47;28.87;;;17.17;;
27113;SDS011;14648;49.730;8.614;2023-05-16T04:02:13;29.10;;;18.13;;
27113;SDS011;14648;49.730;8.614;2023-05-16T04:04:39;28.73;;;17.93;;
27113;SDS011;14648;49.730;8.614;2023-05-16T04:07:04;28.90;;;16.57;;
27113;SDS011;14648;49.730;8.614;2023-05-16T04:09:30;32.93;;;16.60;;
27113;SDS011;14648;49.730;8.614;2023-05-16T04:11:56;32.33;;;17.10;;
27113;SDS011;14648;49.730;8.614;2023-05-16T04:14:25;30.20;;;17.40;;
27113;SDS011;14648;49.730;8.614;2023-05-16T04:16:51;39.73;;;19.57;;
27113;SDS011;14648;49.730;8.614;2023-05-16T04:19:17;44.67;;;21.20;;
27113;SDS011;14648;49.730;8.614;2023-05-16T04:21:43;38.60;;;16.90;;
27113;SDS011;14648;49.730;8.614;2023-05-16T04:24:08;34.57;;;18.00;;
27113;SDS011;14648;49.730;8.614;2023-05-16T04:26:34;32.67;;;17.80;;
27113;SDS011;14648;49.730;8.614;2023-05-16T04:29:01;26.10;;;17.37;;
27113;SDS011;14648;49.730;8.614;2023-05-16T04:31:27;35.13;;;17.97;;
27113;SDS011;14648;49.730;8.614;2023-05-16T04:33:53;25.90;;;16.10;;
27113;SDS011;14648;49.730;8.614;2023-05-16T04:36:19;27.83;;;17.77;;
27113;SDS011;14648;49.730;8.614;2023-05-16T04:38:46;32.97;;;19.00;;
27113;SDS011;14648;49.730;8.614;2023-05-16T04:41:12;28.80;;;16.50;;
27113;SDS011;14648;49.730;8.614;2023-05-16T04:43:38;28.83;;;17.33;;
27113;SDS011;14648;49.730;8.614;2023-05-16T04:46:04;39.63;;;18.70;;
27113;SDS011;14648;49.730;8.614;2023-05-16T04:48:31;26.50;;;15.43;;
27113;SDS011;14648;49.730;8.614;2023-05-16T04:50:58;36.83;;;17.00;;
27113;SDS011;14648;49.730;8.614;2023-05-16T04:53:24;28.30;;;17.27;;
27113;SDS011;14648;49.730;8.614;2023-05-16T04:55:50;27.80;;;16.07;;
27113;SDS011;14648;49.730;8.614;2023-05-16T04:58:16;25.43;;;17.03;;
27113;SDS011;14648;49.730;8.614;2023-05-16T05:00:42;27.83;;;17.00;;
27113;SDS011;14648;49.730;8.614;2023-05-16T05:03:07;25.90;;;15.47;;
27113;SDS011;14648;49.730;8.614;2023-05-16T05:05:33;28.83;;;15.30;;
27113;SDS011;14648;49.730;8.614;2023-05-16T05:07:59;23.20;;;14.43;;
27113;SDS011;14648;49.730;8.614;2023-05-16T05:10:25;24.90;;;14.03;;
27113;SDS011;14648;49.730;8.614;2023-05-16T05:12:52;26.50;;;15.53;;
27113;SDS011;14648;49.730;8.614;2023-05-16T05:15:18;28.87;;;15.03;;
27113;SDS011;14648;49.730;8.614;2023-05-16T05:17:43;26.90;;;14.67;;
27113;SDS011;14648;49.730;8.614;2023-05-16T05:20:09;26.03;;;13.40;;
27113;SDS011;14648;49.730;8.614;2023-05-16T05:22:36;22.53;;;13.20;;
27113;SDS011;14648;49.730;8.614;2023-05-16T05:25:02;24.60;;;13.60;;
27113;SDS011;14648;49.730;8.614;2023-05-16T05:27:33;29.33;;;14.00;;
27113;SDS011;14648;49.730;8.614;2023-05-16T05:29:58;27.97;;;13.33;;
27113;SDS011;14648;49.730;8.614;2023-05-16T05:32:24;22.63;;;13.17;;
27113;SDS011;14648;49.730;8.614;2023-05-16T05:34:50;25.03;;;12.17;;
27113;SDS011;14648;49.730;8.614;2023-05-16T05:37:16;17.40;;;11.97;;
27113;SDS011;14648;49.730;8.614;2023-05-16T05:39:42;18.33;;;10.17;;
27113;SDS011;14648;49.730;8.614;2023-05-16T05:42:09;20.60;;;11.70;;
27113;SDS011;14648;49.730;8.614;2023-05-16T05:44:35;17.20;;;10.30;;
27113;SDS011;14648;49.730;8.614;2023-05-16T05:47:02;20.37;;;9.07;;
27113;SDS011;14648;49.730;8.614;2023-05-16T05:49:31;15.67;;;9.37;;
27113;SDS011;14648;49.730;8.614;2023-05-16T05:52:01;15.40;;;8.10;;
27113;SDS011;14648;49.730;8.614;2023-05-16T05:54:26;11.83;;;7.40;;
27113;SDS011;14648;49.730;8.614;2023-05-16T05:56:54;10.03;;;6.00;;
27113;SDS011;14648;49.730;8.614;2023-05-16T05:59:21;8.10;;;5.73;;
27113;SDS011;14648;49.730;8.614;2023-05-16T06:01:47;6.57;;;4.30;;
27113;SDS011;14648;49.730;8.614;2023-05-16T06:04:18;6.30;;;4.70;;
27113;SDS011;14648;49.730;8.614;2023-05-16T06:06:45;6.40;;;4.10;;
27113;SDS011;14648;49.730;8.614;2023-05-16T06:09:13;6.93;;;3.87;;
27113;SDS011;14648;49.730;8.614;2023-05-16T06:11:40;5.67;;;3.30;;
27113;SDS011;14648;49.730;8.614;2023-05-16T06:14:06;3.40;;;3.10;;
27113;SDS011;14648;49.730;8.614;2023-05-16T06:16:32;2.90;;;2.27;;
27113;SDS011;14648;49.730;8.614;2023-05-16T06:18:57;3.50;;;2.73;;
27113;SDS011;14648;49.730;8.614;2023-05-16T06:21:25;7.10;;;3.27;;
27113;SDS011;14648;49.730;8.614;2023-05-16T06:23:50;4.20;;;2.70;;
27113;SDS011;14648;49.730;8.614;2023-05-16T06:26:17;1.83;;;1.73;;
27113;SDS011;14648;49.730;8.614;2023-05-16T06:28:43;4.17;;;2.40;;
27113;SDS011;14648;49.730;8.614;2023-05-16T06:31:08;5.73;;;2.67;;
27113;SDS011;14648;49.730;8.614;2023-05-16T06:33:34;9.60;;;2.43;;
27113;SDS011;14648;49.730;8.614;2023-05-16T06:36:00;1.60;;;1.50;;
27113;SDS011;14648;49.730;8.614;2023-05-16T06:38:25;3.60;;;1.90;;
27113;SDS011;14648;49.730;8.614;2023-05-16T06:40:51;1.83;;;1.73;;
27113;SDS011;14648;49.730;8.614;2023-05-16T06:43:16;2.70;;;1.50;;
27113;SDS011;14648;49.730;8.614;2023-05-16T06:45:45;2.63;;;2.07;;
27113;SDS011;14648;49.730;8.614;2023-05-16T06:48:12;2.40;;;2.20;;
27113;SDS011;14648;49.730;8.614;2023-05-16T06:50:39;1.53;;;1.43;;
27113;SDS011;14648;49.730;8.614;2023-05-16T06:53:05;5.43;;;1.67;;
27113;SDS011;14648;49.730;8.614;2023-05-16T06:55:32;1.80;;;1.20;;
27113;SDS011;14648;49.730;8.614;2023-05-16T06:57:58;1.90;;;1.70;;
27113;SDS011;14648;49.730;8.614;2023-05-16T07:00:24;1.83;;;1.73;;
27113;SDS011;14648;49.730;8.614;2023-05-16T07:02:50;2.10;;;2.00;;
27113;SDS011;14648;49.730;8.614;2023-05-16T07:05:17;3.30;;;1.80;;
27113;SDS011;14648;49.730;8.614;2023-05-16T07:07:42;1.90;;;1.80;;
27113;SDS011;14648;49.730;8.614;2023-05-16T07:10:09;1.60;;;1.33;;
27113;SDS011;14648;49.730;8.614;2023-05-16T07:12:35;1.37;;;1.27;;
27113;SDS011;14648;49.730;8.614;2023-05-16T07:15:06;1.40;;;1.30;;
27113;SDS011;14648;49.730;8.614;2023-05-16T07:17:32;2.17;;;1.27;;
27113;SDS011;14648;49.730;8.614;2023-05-16T07:19:58;2.47;;;1.33;;
27113;SDS011;14648;49.730;8.614;2023-05-16T07:22:24;2.20;;;1.47;;
27113;SDS011;14648;49.730;8.614;2023-05-16T07:24:50;1.93;;;0.83;;
27113;SDS011;14648;49.730;8.614;2023-05-16T07:27:18;2.20;;;1.00;;
27113;SDS011;14648;49.730;8.614;2023-05-16T07:29:44;1.00;;;0.90;;
27113;SDS011;14648;49.730;8.614;2023-05-16T07:32:09;3.80;;;1.50;;
27113;SDS011;14648;49.730;8.614;2023-05-16T07:34:35;1.47;;;1.37;;
27113;SDS011;14648;49.730;8.614;2023-05-16T07:37:01;3.77;;;1.77;;
27113;SDS011;14648;49.730;8.614;2023-05-16T07:39:27;1.47;;;1.00;;
27113;SDS011;14648;49.730;8.614;2023-05-16T07:41:53;1.53;;;1.10;;
27113;SDS011;14648;49.730;8.614;2023-05-16T07:44:18;1.40;;;0.97;;
27113;SDS011;14648;49.730;8.614;2023-05-16T07:46:44;1.67;;;1.30;;
27113;SDS011;14648;49.730;8.614;2023-05-16T07:49:09;2.30;;;1.40;;
27113;SDS011;14648;49.730;8.614;2023-05-16T07:51:35;2.93;;;1.23;;
27113;SDS011;14648;49.730;8.614;2023-05-16T07:54:01;1.27;;;1.17;;
27113;SDS011;14648;49.730;8.614;2023-05-16T07:56:27;1.10;;;1.00;;
27113;SDS011;14648;49.730;8.614;2023-05-16T07:58:53;2.23;;;1.63;;
27113;SDS011;14648;49.730;8.614;2023-05-16T08:01:19;1.43;;;1.33;;
27113;SDS011;14648;49.730;8.614;2023-05-16T08:03:45;1.20;;;1.10;;
27113;SDS011;14648;49.730;8.614;2023-05-16T08:06:10;2.43;;;1.53;;
27113;SDS011;14648;49.730;8.614;2023-05-16T08:08:36;1.80;;;1.57;;
27113;SDS011;14648;49.730;8.614;2023-05-16T08:11:02;1.13;;;1.03;;
27113;SDS011;14648;49.730;8.614;2023-05-16T08:13:29;1.67;;;1.57;;
27113;SDS011;14648;49.730;8.614;2023-05-16T08:15:55;1.00;;;1.00;;
27113;SDS011;14648;49.730;8.614;2023-05-16T08:18:21;2.67;;;1.27;;
27113;SDS011;14648;49.730;8.614;2023-05-16T08:20:46;5.47;;;1.30;;
27113;SDS011;14648;49.730;8.614;2023-05-16T08:23:12;1.87;;;1.33;;
27113;SDS011;14648;49.730;8.614;2023-05-16T08:25:38;1.80;;;1.33;;
27113;SDS011;14648;49.730;8.614;2023-05-16T08:28:04;1.30;;;1.20;;
27113;SDS011;14648;49.730;8.614;2023-05-16T08:30:30;2.73;;;1.37;;
27113;SDS011;14648;49.730;8.614;2023-05-16T08:32:56;1.10;;;1.10;;
27113;SDS011;14648;49.730;8.614;2023-05-16T08:35:21;1.53;;;1.43;;
27113;SDS011;14648;49.730;8.614;2023-05-16T08:37:47;1.10;;;1.10;;
27113;SDS011;14648;49.730;8.614;2023-05-16T08:40:13;1.30;;;1.20;;
27113;SDS011;14648;49.730;8.614;2023-05-16T08:42:39;1.70;;;1.60;;
27113;SDS011;14648;49.730;8.614;2023-05-16T08:45:05;4.37;;;1.93;;
27113;SDS011;14648;49.730;8.614;2023-05-16T08:47:32;1.40;;;1.30;;
27113;SDS011;14648;49.730;8.614;2023-05-16T08:50:01;1.63;;;1.03;;
27113;SDS011;14648;49.730;8.614;2023-05-16T08:52:29;1.10;;;1.00;;
27113;SDS011;14648;49.730;8.614;2023-05-16T08:54:56;1.33;;;1.00;;
27113;SDS011;14648;49.730;8.614;2023-05-16T08:57:29;0.70;;;0.60;;
27113;SDS011;14648;49.730;8.614;2023-05-16T08:59:56;0.80;;;0.70;;
27113;SDS011;14648;49.730;8.614;2023-05-16T09:02:22;1.57;;;0.60;;
27113;SDS011;14648;49.730;8.614;2023-05-16T09:04:48;5.83;;;0.70;;
27113;SDS011;14648;49.730;8.614;2023-05-16T09:07:14;0.80;;;0.57;;
27113;SDS011;14648;49.730;8.614;2023-05-16T09:09:41;2.00;;;0.60;;
27113;SDS011;14648;49.730;8.614;2023-05-16T09:12:07;0.50;;;0.50;;
27113;SDS011;14648;49.730;8.614;2023-05-16T09:14:33;0.77;;;0.70;;
27113;SDS011;14648;49.730;8.614;2023-05-16T09:17:06;0.70;;;0.70;;
27113;SDS011;14648;49.730;8.614;2023-05-16T09:19:37;0.60;;;0.50;;
27113;SDS011;14648;49.730;8.614;2023-05-16T09:22:05;0.70;;;0.60;;
27113;SDS011;14648;49.730;8.614;2023-05-16T09:24:36;0.60;;;0.60;;
27113;SDS011;14648;49.730;8.614;2023-05-16T09:27:10;0.70;;;0.60;;
27113;SDS011;14648;49.730;8.614;2023-05-16T09:29:42;0.97;;;0.80;;
27113;SDS011;14648;49.730;8.614;2023-05-16T09:32:12;2.20;;;0.87;;
27113;SDS011;14648;49.730;8.614;2023-05-16T09:34:44;0.60;;;0.60;;
27113;SDS011;14648;49.730;8.614;2023-05-16T09:37:13;0.70;;;0.70;;
27113;SDS011;14648;49.730;8.614;2023-05-16T09:39:47;0.90;;;0.70;;
27113;SDS011;14648;49.730;8.614;2023-05-16T09:42:16;0.73;;;0.70;;
27113;SDS011;14648;49.730;8.614;2023-05-16T09:44:50;1.10;;;0.70;;
27113;SDS011;14648;49.730;8.614;2023-05-16T09:47:18;0.70;;;0.70;;
27113;SDS011;14648;49.730;8.614;2023-05-16T09:49:46;2.10;;;0.63;;
27113;SDS011;14648;49.730;8.614;2023-05-16T09:52:16;0.80;;;0.80;;
27113;SDS011;14648;49.730;8.614;2023-05-16T09:54:42;4.50;;;0.70;;
27113;SDS011;14648;49.730;8.614;2023-05-16T09:57:10;2.50;;;0.80;;
27113;SDS011;14648;49.730;8.614;2023-05-16T09:59:37;1.23;;;0.90;;
27113;SDS011;14648;49.730;8.614;2023-05-16T10:02:04;1.10;;;0.70;;
27113;SDS011;14648;49.730;8.614;2023-05-16T10:04:34;1.43;;;0.70;;
27113;SDS011;14648;49.730;8.614;2023-05-16T10:07:01;1.53;;;0.67;;
27113;SDS011;14648;49.730;8.614;2023-05-16T10:09:34;1.93;;;0.83;;
27113;SDS011;14648;49.730;8.614;2023-05-16T10:12:01;0.90;;;0.60;;
27113;SDS011;14648;49.730;8.614;2023-05-16T10:14:34;3.13;;;0.70;;
27113;SDS011;14648;49.730;8.614;2023-05-16T10:17:05;1.10;;;0.70;;
27113;SDS011;14648;49.730;8.614;2023-05-16T10:19:34;0.87;;;0.80;;
27113;SDS011;14648;49.730;8.614;2023-05-16T10:22:03;4.20;;;0.80;;
27113;SDS011;14648;49.730;8.614;2023-05-16T10:27:16;1.73;;;0.90;;
27113;SDS011;14648;49.730;8.614;2023-05-16T10:29:42;1.97;;;1.10;;
27113;SDS011;14648;49.730;8.614;2023-05-16T10:32:09;2.73;;;0.80;;
27113;SDS011;14648;49.730;8.614;2023-05-16T10:34:36;0.90;;;0.90;;
27113;SDS011;14648;49.730;8.614;2023-05-16T10:37:03;0.90;;;0.90;;
27113;SDS011;14648;49.730;8.614;2023-05-16T10:39:30;1.17;;;1.00;;
27113;SDS011;14648;49.730;8.614;2023-05-16T10:41:56;1.77;;;0.70;;
27113;SDS011;14648;49.730;8.614;2023-05-16T10:44:24;3.20;;;1.00;;
27113;SDS011;14648;49.730;8.614;2023-05-16T10:46:50;2.83;;;1.00;;
27113;SDS011;14648;49.730;8.614;2023-05-16T10:49:22;1.77;;;1.10;;
27113;SDS011;14648;49.730;8.614;2023-05-16T10:52:09;2.33;;;0.90;;
27113;SDS011;14648;49.730;8.614;2023-05-16T10:54:41;1.00;;;0.80;;
27113;SDS011;14648;49.730;8.614;2023-05-16T10:57:14;2.47;;;1.60;;
27113;SDS011;14648;49.730;8.614;2023-05-16T10:59:45;3.70;;;0.90;;
27113;SDS011;14648;49.730;8.614;2023-05-16T11:02:23;1.53;;;0.90;;
27113;SDS011;14648;49.730;8.614;2023-05-16T11:04:57;2.70;;;1.33;;
27113;SDS011;14648;49.730;8.614;2023-05-16T11:07:29;7.40;;;1.10;;
27113;SDS011;14648;49.730;8.614;2023-05-16T11:12:49;1.27;;;0.90;;
27113;SDS011;14648;49.730;8.614;2023-05-16T11:15:20;5.30;;;1.17;;
27113;SDS011;14648;49.730;8.614;2023-05-16T11:18:06;1.47;;;1.17;;
27113;SDS011;14648;49.730;8.614;2023-05-16T11:20:39;5.23;;;1.13;;
27113;SDS011;14648;49.730;8.614;2023-05-16T11:25:47;1.77;;;1.30;;
27113;SDS011;14648;49.730;8.614;2023-05-16T11:28:25;1.73;;;1.00;;
27113;SDS011;14648;49.730;8.614;2023-05-16T11:30:52;1.40;;;1.00;;
27113;SDS011;14648;49.730;8.614;2023-05-16T11:33:22;2.13;;;1.23;;
27113;SDS011;14648;49.730;8.614;2023-05-16T11:36:05;0.90;;;0.90;;
27113;SDS011;14648;49.730;8.614;2023-05-16T11:38:32;7.33;;;1.27;;
27113;SDS011;14648;49.730;8.614;2023-05-16T11:41:07;1.07;;;0.97;;
27113;SDS011;14648;49.730;8.614;2023-05-16T11:43:39;4.60;;;1.33;;
27113;SDS011;14648;49.730;8.614;2023-05-16T11:46:09;2.50;;;1.10;;
27113;SDS011;14648;49.730;8.614;2023-05-16T11:48:36;3.37;;;1.43;;
27113;SDS011;14648;49.730;8.614;2023-05-16T11:51:02;6.40;;;1.40;;
27113;SDS011;14648;49.730;8.614;2023-05-16T11:53:28;3.50;;;1.50;;
27113;SDS011;14648;49.730;8.614;2023-05-16T11:55:54;6.90;;;1.50;;
27113;SDS011;14648;49.730;8.614;2023-05-16T11:58:20;2.33;;;1.30;;
27113;SDS011;14648;49.730;8.614;2023-05-16T12:00:50;6.43;;;2.00;;
27113;SDS011;14648;49.730;8.614;2023-05-16T12:03:16;4.33;;;1.80;;
27113;SDS011;14648;49.730;8.614;2023-05-16T12:05:51;2.70;;;1.77;;
27113;SDS011;14648;49.730;8.614;2023-05-16T12:08:18;1.30;;;1.00;;
27113;SDS011;14648;49.730;8.614;2023-05-16T12:10:49;4.10;;;1.40;;
27113;SDS011;14648;49.730;8.614;2023-05-16T12:13:17;1.60;;;1.50;;
27113;SDS011;14648;49.730;8.614;2023-05-16T12:15:46;4.37;;;1.67;;
27113;SDS011;14648;49.730;8.614;2023-05-16T12:18:12;3.73;;;1.60;;
27113;SDS011;14648;49.730;8.614;2023-05-16T12:20:39;3.27;;;1.10;;
27113;SDS011;14648;49.730;8.614;2023-05-16T12:23:11;2.07;;;1.50;;
27113;SDS011;14648;49.730;8.614;2023-05-16T12:25:37;6.57;;;1.93;;
27113;SDS011;14648;49.730;8.614;2023-05-16T12:28:10;5.60;;;2.13;;
27113;SDS011;14648;49.730;8.614;2023-05-16T12:30:41;3.97;;;1.90;;
27113;SDS011;14648;49.730;8.614;2023-05-16T12:33:16;7.57;;;1.23;;
27113;SDS011;14648;49.730;8.614;2023-05-16T12:35:45;5.60;;;1.93;;
27113;SDS011;14648;49.730;8.614;2023-05-16T12:38:12;3.33;;;1.40;;
27113;SDS011;14648;49.730;8.614;2023-05-16T12:40:40;4.00;;;0.93;;
27113;SDS011;14648;49.730;8.614;2023-05-16T12:43:18;8.23;;;1.40;;
27113;SDS011;14648;49.730;8.614;2023-05-16T12:45:56;10.57;;;1.43;;
27113;SDS011;14648;49.730;8.614;2023-05-16T12:48:22;13.93;;;1.77;;
27113;SDS011;14648;49.730;8.614;2023-05-16T12:50:54;4.07;;;1.23;;
27113;SDS011;14648;49.730;8.614;2023-05-16T12:53:26;2.70;;;1.23;;
27113;SDS011;14648;49.730;8.614;2023-05-16T12:55:55;5.00;;;0.90;;
27113;SDS011;14648;49.730;8.614;2023-05-16T12:58:29;5.73;;;1.30;;
27113;SDS011;14648;49.730;8.614;2023-05-16T13:00:57;2.20;;;1.20;;
27113;SDS011;14648;49.730;8.614;2023-05-16T13:03:26;4.00;;;1.10;;
27113;SDS011;14648;49.730;8.614;2023-05-16T13:05:52;3.83;;;1.07;;
27113;SDS011;14648;49.730;8.614;2023-05-16T13:08:22;5.57;;;1.07;;
27113;SDS011;14648;49.730;8.614;2023-05-16T13:10:52;0.80;;;0.80;;
27113;SDS011;14648;49.730;8.614;2023-05-16T13:13:21;1.63;;;1.27;;
27113;SDS011;14648;49.730;8.614;2023-05-16T13:15:48;3.33;;;1.07;;
27113;SDS011;14648;49.730;8.614;2023-05-16T13:18:14;2.73;;;1.30;;
27113;SDS011;14648;49.730;8.614;2023-05-16T13:20:40;3.40;;;1.40;;
27113;SDS011;14648;49.730;8.614;2023-05-16T13:23:06;3.53;;;1.70;;
27113;SDS011;14648;49.730;8.614;2023-05-16T13:25:32;2.90;;;1.40;;
27113;SDS011;14648;49.730;8.614;2023-05-16T13:28:00;3.30;;;1.63;;
27113;SDS011;14648;49.730;8.614;2023-05-16T13:48:26;4.97;;;1.17;;
27113;SDS011;14648;49.730;8.614;2023-05-16T13:50:52;6.47;;;2.10;;
27113;SDS011;14648;49.730;8.614;2023-05-16T13:53:18;3.10;;;1.30;;
27113;SDS011;14648;49.730;8.614;2023-05-16T13:55:43;2.50;;;1.10;;
27113;SDS011;14648;49.730;8.614;2023-05-16T13:58:09;4.13;;;1.27;;
27113;SDS011;14648;49.730;8.614;2023-05-16T14:00:35;7.43;;;1.20;;
27113;SDS011;14648;49.730;8.614;2023-05-16T14:03:00;3.03;;;0.80;;
27113;SDS011;14648;49.730;8.614;2023-05-16T14:05:26;5.37;;;2.30;;
27113;SDS011;14648;49.730;8.614;2023-05-16T14:07:52;2.60;;;0.90;;
27113;SDS011;14648;49.730;8.614;2023-05-16T14:10:18;5.60;;;1.33;;
27113;SDS011;14648;49.730;8.614;2023-05-16T14:12:44;1.40;;;0.90;;
27113;SDS011;14648;49.730;8.614;2023-05-16T14:15:09;1.40;;;1.27;;
27113;SDS011;14648;49.730;8.614;2023-05-16T14:17:35;1.77;;;1.27;;
27113;SDS011;14648;49.730;8.614;2023-05-16T14:20:01;3.90;;;1.07;;
27113;SDS011;14648;49.730;8.614;2023-05-16T14:22:32;3.33;;;1.30;;
27113;SDS011;14648;49.730;8.614;2023-05-16T14:24:58;1.87;;;1.10;;
27113;SDS011;14648;49.730;8.614;2023-05-16T14:27:24;2.30;;;0.70;;
27113;SDS011;14648;49.730;8.614;2023-05-16T14:29:50;3.13;;;0.90;;
27113;SDS011;14648;49.730;8.614;2023-05-16T14:32:16;3.40;;;1.10;;
27113;SDS011;14648;49.730;8.614;2023-05-16T14:34:42;4.53;;;1.33;;
27113;SDS011;14648;49.730;8.614;2023-05-16T14:37:07;1.20;;;0.90;;
27113;SDS011;14648;49.730;8.614;2023-05-16T14:39:34;2.40;;;0.90;;
27113;SDS011;14648;49.730;8.614;2023-05-16T14:42:00;2.50;;;0.93;;
27113;SDS011;14648;49.730;8.614;2023-05-16T14:44:25;19.07;;;0.93;;
27113;SDS011;14648;49.730;8.614;2023-05-16T14:46:51;1.77;;;0.77;;
27113;SDS011;14648;49.730;8.614;2023-05-16T14:49:17;2.83;;;1.17;;
27113;SDS011;14648;49.730;8.614;2023-05-16T14:51:42;4.13;;;1.27;;
27113;SDS011;14648;49.730;8.614;2023-05-16T14:54:09;2.17;;;0.80;;
27113;SDS011;14648;49.730;8.614;2023-05-16T14:56:35;3.17;;;1.07;;
27113;SDS011;14648;49.730;8.614;2023-05-16T14:59:00;2.20;;;0.93;;
27113;SDS011;14648;49.730;8.614;2023-05-16T15:01:26;2.30;;;1.00;;
27113;SDS011;14648;49.730;8.614;2023-05-16T15:03:52;2.93;;;0.77;;
27113;SDS011;14648;49.730;8.614;2023-05-16T15:06:18;3.43;;;1.23;;
27113;SDS011;14648;49.730;8.614;2023-05-16T15:08:43;1.20;;;0.70;;
27113;SDS011;14648;49.730;8.614;2023-05-16T15:11:09;2.20;;;1.03;;
27113;SDS011;14648;49.730;8.614;2023-05-16T15:13:35;1.53;;;1.00;;